Fatezh, Russia
Current Conditions -  °F | °C
As of 4:00 PM on Friday 24 Oct 2014 (Local Time) from UUOK Reporting Station
Broken Clouds Broken Clouds  
Wind Chill: 19°   Ceiling: 2400
Heat Index: 28°   Visibility: 6mi
Dew Point: 14°   Wind: 11mph
Humidity: 55%   Direction: 360°N
Pressure: 30.56"   Gusts: NA
Location:  52.09°N, 35.86°E
Report Text: UUOK 241300Z 36005MPS 9999 BKN024 M02/M10 Q1035 NOSIG RMK30CLRD70
Loading
Personal Weather Stations






























Interactive Weather Map
Tropical Storm Tracking
New forecast layout! Learn more

10-Day Weather Forecast

Advertisements
Track Severe Weather on mobile